sensor_id;sensor_type;location;lat;lon;timestamp;temperature;humidity
1880;DHT22;49285;49.002;8.390;2023-02-28T00:00:25;4.10;72.20
1880;DHT22;49285;49.002;8.390;2023-02-28T00:02:51;4.10;72.50
1880;DHT22;49285;49.002;8.390;2023-02-28T00:05:20;4.10;72.80
1880;DHT22;49285;49.002;8.390;2023-02-28T00:07:46;4.10;72.90
1880;DHT22;49285;49.002;8.390;2023-02-28T00:10:15;4.10;73.00
1880;DHT22;49285;49.002;8.390;2023-02-28T00:12:40;4.00;73.40
1880;DHT22;49285;49.002;8.390;2023-02-28T00:15:08;4.00;73.40
1880;DHT22;49285;49.002;8.390;2023-02-28T00:17:34;4.00;73.70
1880;DHT22;49285;49.002;8.390;2023-02-28T00:20:00;4.00;74.70
1880;DHT22;49285;49.002;8.390;2023-02-28T00:22:28;4.00;74.30
1880;DHT22;49285;49.002;8.390;2023-02-28T00:24:54;4.00;74.40
1880;DHT22;49285;49.002;8.390;2023-02-28T00:27:20;3.90;74.50
1880;DHT22;49285;49.002;8.390;2023-02-28T00:29:46;3.90;74.60
1880;DHT22;49285;49.002;8.390;2023-02-28T00:32:12;3.90;75.00
1880;DHT22;49285;49.002;8.390;2023-02-28T00:34:38;3.90;75.00
1880;DHT22;49285;49.002;8.390;2023-02-28T00:37:05;3.90;75.30
1880;DHT22;49285;49.002;8.390;2023-02-28T00:39:31;3.90;75.50
1880;DHT22;49285;49.002;8.390;2023-02-28T00:41:58;3.90;75.60
1880;DHT22;49285;49.002;8.390;2023-02-28T00:44:23;3.90;75.70
1880;DHT22;49285;49.002;8.390;2023-02-28T00:46:49;3.90;75.70
1880;DHT22;49285;49.002;8.390;2023-02-28T00:49:14;3.90;75.80
1880;DHT22;49285;49.002;8.390;2023-02-28T00:51:40;3.90;76.10
1880;DHT22;49285;49.002;8.390;2023-02-28T00:54:05;3.90;76.20
1880;DHT22;49285;49.002;8.390;2023-02-28T00:56:31;3.90;76.30
1880;DHT22;49285;49.002;8.390;2023-02-28T00:58:56;3.90;76.40
1880;DHT22;49285;49.002;8.390;2023-02-28T01:01:22;3.90;76.60
1880;DHT22;49285;49.002;8.390;2023-02-28T01:03:48;3.80;76.50
1880;DHT22;49285;49.002;8.390;2023-02-28T01:06:13;3.90;76.90
1880;DHT22;49285;49.002;8.390;2023-02-28T01:08:39;3.80;76.90
1880;DHT22;49285;49.002;8.390;2023-02-28T01:11:10;3.80;77.20
1880;DHT22;49285;49.002;8.390;2023-02-28T01:13:36;3.80;77.50
1880;DHT22;49285;49.002;8.390;2023-02-28T01:16:02;3.80;77.70
1880;DHT22;49285;49.002;8.390;2023-02-28T01:18:28;3.70;78.00
1880;DHT22;49285;49.002;8.390;2023-02-28T01:20:54;3.70;78.10
1880;DHT22;49285;49.002;8.390;2023-02-28T01:23:20;3.70;78.40
1880;DHT22;49285;49.002;8.390;2023-02-28T01:25:48;3.70;78.70
1880;DHT22;49285;49.002;8.390;2023-02-28T01:28:14;3.70;78.60
1880;DHT22;49285;49.002;8.390;2023-02-28T01:30:40;3.70;78.90
1880;DHT22;49285;49.002;8.390;2023-02-28T01:33:05;3.70;79.10
1880;DHT22;49285;49.002;8.390;2023-02-28T01:35:35;3.60;79.20
1880;DHT22;49285;49.002;8.390;2023-02-28T01:38:01;3.60;79.20
1880;DHT22;49285;49.002;8.390;2023-02-28T01:40:27;3.60;79.60
1880;DHT22;49285;49.002;8.390;2023-02-28T01:42:53;3.60;79.90
1880;DHT22;49285;49.002;8.390;2023-02-28T01:47:55;3.60;80.40
1880;DHT22;49285;49.002;8.390;2023-02-28T01:50:28;3.60;80.50
1880;DHT22;49285;49.002;8.390;2023-02-28T01:52:58;3.60;80.60
1880;DHT22;49285;49.002;8.390;2023-02-28T01:55:25;3.60;80.60
1880;DHT22;49285;49.002;8.390;2023-02-28T01:57:56;3.60;80.90
1880;DHT22;49285;49.002;8.390;2023-02-28T02:00:25;3.60;81.10
1880;DHT22;49285;49.002;8.390;2023-02-28T02:02:55;3.60;81.30
1880;DHT22;49285;49.002;8.390;2023-02-28T02:05:28;3.50;81.30
1880;DHT22;49285;49.002;8.390;2023-02-28T02:07:59;3.50;81.70
1880;DHT22;49285;49.002;8.390;2023-02-28T02:10:33;3.50;82.00
1880;DHT22;49285;49.002;8.390;2023-02-28T02:18:54;3.40;82.80
1880;DHT22;49285;49.002;8.390;2023-02-28T02:24:25;3.40;83.50
1880;DHT22;49285;49.002;8.390;2023-02-28T02:32:32;3.30;83.90
1880;DHT22;49285;49.002;8.390;2023-02-28T02:40:32;3.20;84.90
1880;DHT22;49285;49.002;8.390;2023-02-28T02:43:05;3.20;85.30
1880;DHT22;49285;49.002;8.390;2023-02-28T02:45:56;3.20;85.70
1880;DHT22;49285;49.002;8.390;2023-02-28T02:48:27;3.20;85.90
1880;DHT22;49285;49.002;8.390;2023-02-28T02:50:56;3.20;86.20
1880;DHT22;49285;49.002;8.390;2023-02-28T02:53:32;3.20;86.30
1880;DHT22;49285;49.002;8.390;2023-02-28T02:56:01;3.20;86.40
1880;DHT22;49285;49.002;8.390;2023-02-28T02:58:32;3.20;86.50
1880;DHT22;49285;49.002;8.390;2023-02-28T03:01:01;3.20;86.60
1880;DHT22;49285;49.002;8.390;2023-02-28T03:03:29;3.20;86.70
1880;DHT22;49285;49.002;8.390;2023-02-28T03:06:00;3.30;86.90
1880;DHT22;49285;49.002;8.390;2023-02-28T03:08:28;3.30;87.20
1880;DHT22;49285;49.002;8.390;2023-02-28T03:10:59;3.30;87.30
1880;DHT22;49285;49.002;8.390;2023-02-28T03:16:29;3.30;87.90
1880;DHT22;49285;49.002;8.390;2023-02-28T03:19:24;3.30;88.10
1880;DHT22;49285;49.002;8.390;2023-02-28T03:24:57;3.30;88.30
1880;DHT22;49285;49.002;8.390;2023-02-28T03:27:29;3.30;88.50
1880;DHT22;49285;49.002;8.390;2023-02-28T03:32:28;3.30;89.30
1880;DHT22;49285;49.002;8.390;2023-02-28T03:35:09;3.30;89.50
1880;DHT22;49285;49.002;8.390;2023-02-28T03:37:39;3.30;89.70
1880;DHT22;49285;49.002;8.390;2023-02-28T03:40:11;3.30;89.90
1880;DHT22;49285;49.002;8.390;2023-02-28T03:42:40;3.20;90.10
1880;DHT22;49285;49.002;8.390;2023-02-28T03:45:22;3.30;90.20
1880;DHT22;49285;49.002;8.390;2023-02-28T03:50:42;3.30;90.40
1880;DHT22;49285;49.002;8.390;2023-02-28T03:53:22;3.30;90.40
1880;DHT22;49285;49.002;8.390;2023-02-28T03:55:57;3.30;90.50
1880;DHT22;49285;49.002;8.390;2023-02-28T03:59:00;3.40;90.60
1880;DHT22;49285;49.002;8.390;2023-02-28T04:01:38;3.40;90.70
1880;DHT22;49285;49.002;8.390;2023-02-28T04:04:04;3.40;90.70
1880;DHT22;49285;49.002;8.390;2023-02-28T04:06:32;3.40;90.80
1880;DHT22;49285;49.002;8.390;2023-02-28T04:08:57;3.40;90.90
1880;DHT22;49285;49.002;8.390;2023-02-28T04:11:42;3.40;90.80
1880;DHT22;49285;49.002;8.390;2023-02-28T04:14:10;3.30;90.90
1880;DHT22;49285;49.002;8.390;2023-02-28T04:16:39;3.40;91.00
1880;DHT22;49285;49.002;8.390;2023-02-28T04:19:07;3.40;91.00
1880;DHT22;49285;49.002;8.390;2023-02-28T04:21:35;3.40;91.50
1880;DHT22;49285;49.002;8.390;2023-02-28T04:24:02;3.40;91.20
1880;DHT22;49285;49.002;8.390;2023-02-28T04:26:32;3.40;91.20
1880;DHT22;49285;49.002;8.390;2023-02-28T04:28:59;3.50;91.30
1880;DHT22;49285;49.002;8.390;2023-02-28T04:31:25;3.50;91.30
1880;DHT22;49285;49.002;8.390;2023-02-28T04:33:50;3.50;91.40
1880;DHT22;49285;49.002;8.390;2023-02-28T04:36:17;3.50;91.30
1880;DHT22;49285;49.002;8.390;2023-02-28T04:38:48;3.50;91.30
1880;DHT22;49285;49.002;8.390;2023-02-28T04:41:13;3.50;91.30
1880;DHT22;49285;49.002;8.390;2023-02-28T04:43:39;3.50;91.30
1880;DHT22;49285;49.002;8.390;2023-02-28T04:46:05;3.50;91.40
1880;DHT22;49285;49.002;8.390;2023-02-28T04:48:34;3.50;91.50
1880;DHT22;49285;49.002;8.390;2023-02-28T04:51:11;3.50;91.50
1880;DHT22;49285;49.002;8.390;2023-02-28T04:53:39;3.50;91.50
1880;DHT22;49285;49.002;8.390;2023-02-28T04:56:06;3.50;91.60
1880;DHT22;49285;49.002;8.390;2023-02-28T04:58:32;3.50;91.60
1880;DHT22;49285;49.002;8.390;2023-02-28T05:01:03;3.50;91.60
1880;DHT22;49285;49.002;8.390;2023-02-28T05:03:29;3.50;91.70
1880;DHT22;49285;49.002;8.390;2023-02-28T05:05:55;3.50;91.70
1880;DHT22;49285;49.002;8.390;2023-02-28T05:08:21;3.40;91.70
1880;DHT22;49285;49.002;8.390;2023-02-28T05:10:47;3.40;92.10
1880;DHT22;49285;49.002;8.390;2023-02-28T05:13:13;3.40;91.90
1880;DHT22;49285;49.002;8.390;2023-02-28T05:15:38;3.40;91.90
1880;DHT22;49285;49.002;8.390;2023-02-28T05:18:04;3.40;91.90
1880;DHT22;49285;49.002;8.390;2023-02-28T05:20:30;3.40;91.90
1880;DHT22;49285;49.002;8.390;2023-02-28T05:22:57;3.40;92.00
1880;DHT22;49285;49.002;8.390;2023-02-28T05:25:23;3.40;92.00
1880;DHT22;49285;49.002;8.390;2023-02-28T05:27:48;3.40;92.00
1880;DHT22;49285;49.002;8.390;2023-02-28T05:30:14;3.40;91.90
1880;DHT22;49285;49.002;8.390;2023-02-28T05:32:41;3.40;92.00
1880;DHT22;49285;49.002;8.390;2023-02-28T05:35:09;3.30;92.10
1880;DHT22;49285;49.002;8.390;2023-02-28T05:37:35;3.40;92.50
1880;DHT22;49285;49.002;8.390;2023-02-28T05:40:01;3.40;92.00
1880;DHT22;49285;49.002;8.390;2023-02-28T05:42:27;3.30;92.10
1880;DHT22;49285;49.002;8.390;2023-02-28T05:44:52;3.30;92.30
1880;DHT22;49285;49.002;8.390;2023-02-28T05:47:18;3.40;92.20
1880;DHT22;49285;49.002;8.390;2023-02-28T05:49:43;3.30;92.20
1880;DHT22;49285;49.002;8.390;2023-02-28T05:52:09;3.30;92.30
1880;DHT22;49285;49.002;8.390;2023-02-28T05:54:34;3.40;92.40
1880;DHT22;49285;49.002;8.390;2023-02-28T05:57:00;3.40;92.50
1880;DHT22;49285;49.002;8.390;2023-02-28T05:59:25;3.40;92.50
1880;DHT22;49285;49.002;8.390;2023-02-28T06:01:51;3.40;92.80
1880;DHT22;49285;49.002;8.390;2023-02-28T06:04:19;3.40;92.50
1880;DHT22;49285;49.002;8.390;2023-02-28T06:06:49;3.30;92.60
1880;DHT22;49285;49.002;8.390;2023-02-28T06:09:15;3.30;92.60
1880;DHT22;49285;49.002;8.390;2023-02-28T06:11:41;3.40;92.60
1880;DHT22;49285;49.002;8.390;2023-02-28T06:14:07;3.30;92.70
1880;DHT22;49285;49.002;8.390;2023-02-28T06:16:34;3.40;92.80
1880;DHT22;49285;49.002;8.390;2023-02-28T06:19:03;3.30;92.90
1880;DHT22;49285;49.002;8.390;2023-02-28T06:21:29;3.40;93.00
1880;DHT22;49285;49.002;8.390;2023-02-28T06:23:56;3.40;93.00
1880;DHT22;49285;49.002;8.390;2023-02-28T06:26:22;3.40;93.00
1880;DHT22;49285;49.002;8.390;2023-02-28T06:28:47;3.40;93.00
1880;DHT22;49285;49.002;8.390;2023-02-28T06:31:15;3.40;93.10
1880;DHT22;49285;49.002;8.390;2023-02-28T06:33:42;3.40;93.00
1880;DHT22;49285;49.002;8.390;2023-02-28T06:36:10;3.40;93.10
1880;DHT22;49285;49.002;8.390;2023-02-28T06:38:36;3.40;93.00
1880;DHT22;49285;49.002;8.390;2023-02-28T06:41:03;3.40;93.20
1880;DHT22;49285;49.002;8.390;2023-02-28T06:43:30;3.40;93.20
1880;DHT22;49285;49.002;8.390;2023-02-28T06:45:57;3.40;93.30
1880;DHT22;49285;49.002;8.390;2023-02-28T06:48:23;3.40;93.10
1880;DHT22;49285;49.002;8.390;2023-02-28T06:50:49;3.40;93.20
1880;DHT22;49285;49.002;8.390;2023-02-28T06:53:15;3.40;93.30
1880;DHT22;49285;49.002;8.390;2023-02-28T06:55:41;3.40;93.20
1880;DHT22;49285;49.002;8.390;2023-02-28T06:58:07;3.50;93.30
1880;DHT22;49285;49.002;8.390;2023-02-28T07:00:45;3.50;93.30
1880;DHT22;49285;49.002;8.390;2023-02-28T07:03:11;3.50;93.40
1880;DHT22;49285;49.002;8.390;2023-02-28T07:05:38;3.50;93.30
1880;DHT22;49285;49.002;8.390;2023-02-28T07:08:05;3.60;93.30
1880;DHT22;49285;49.002;8.390;2023-02-28T07:10:34;3.60;93.30
1880;DHT22;49285;49.002;8.390;2023-02-28T07:13:00;3.60;93.30
1880;DHT22;49285;49.002;8.390;2023-02-28T07:15:25;3.60;93.40
1880;DHT22;49285;49.002;8.390;2023-02-28T07:17:51;3.60;93.40
1880;DHT22;49285;49.002;8.390;2023-02-28T07:20:17;3.60;93.50
1880;DHT22;49285;49.002;8.390;2023-02-28T07:22:42;3.70;93.30
1880;DHT22;49285;49.002;8.390;2023-02-28T07:25:08;3.70;93.10
1880;DHT22;49285;49.002;8.390;2023-02-28T07:27:34;3.70;93.20
1880;DHT22;49285;49.002;8.390;2023-02-28T07:30:00;3.70;93.30
1880;DHT22;49285;49.002;8.390;2023-02-28T07:32:28;3.70;93.40
1880;DHT22;49285;49.002;8.390;2023-02-28T07:34:54;3.70;93.40
1880;DHT22;49285;49.002;8.390;2023-02-28T07:37:20;3.70;93.30
1880;DHT22;49285;49.002;8.390;2023-02-28T07:39:46;3.70;93.40
1880;DHT22;49285;49.002;8.390;2023-02-28T07:42:11;3.80;93.40
1880;DHT22;49285;49.002;8.390;2023-02-28T07:44:40;3.80;93.20
1880;DHT22;49285;49.002;8.390;2023-02-28T07:47:09;3.70;93.20
1880;DHT22;49285;49.002;8.390;2023-02-28T07:49:36;3.80;93.40
1880;DHT22;49285;49.002;8.390;2023-02-28T07:52:03;3.80;93.20
1880;DHT22;49285;49.002;8.390;2023-02-28T07:54:29;3.80;93.20
1880;DHT22;49285;49.002;8.390;2023-02-28T07:56:54;3.80;93.20
1880;DHT22;49285;49.002;8.390;2023-02-28T07:59:20;3.80;93.10
1880;DHT22;49285;49.002;8.390;2023-02-28T08:01:45;3.80;93.10
1880;DHT22;49285;49.002;8.390;2023-02-28T08:04:11;3.80;93.20
1880;DHT22;49285;49.002;8.390;2023-02-28T08:06:36;3.80;93.10
1880;DHT22;49285;49.002;8.390;2023-02-28T08:09:02;3.70;93.10
1880;DHT22;49285;49.002;8.390;2023-02-28T08:11:28;3.70;93.30
1880;DHT22;49285;49.002;8.390;2023-02-28T08:13:54;3.70;93.30
1880;DHT22;49285;49.002;8.390;2023-02-28T08:16:20;3.70;93.30
1880;DHT22;49285;49.002;8.390;2023-02-28T08:18:48;3.80;93.20
1880;DHT22;49285;49.002;8.390;2023-02-28T08:21:14;3.90;93.00
1880;DHT22;49285;49.002;8.390;2023-02-28T08:23:40;3.90;93.00
1880;DHT22;49285;49.002;8.390;2023-02-28T08:26:05;3.90;93.20
1880;DHT22;49285;49.002;8.390;2023-02-28T08:28:31;3.90;93.30
1880;DHT22;49285;49.002;8.390;2023-02-28T08:30:57;4.00;93.10
1880;DHT22;49285;49.002;8.390;2023-02-28T08:33:23;3.90;93.20
1880;DHT22;49285;49.002;8.390;2023-02-28T08:35:52;4.00;93.00
1880;DHT22;49285;49.002;8.390;2023-02-28T08:38:19;4.00;93.10
1880;DHT22;49285;49.002;8.390;2023-02-28T08:40:45;4.00;93.00
1880;DHT22;49285;49.002;8.390;2023-02-28T08:43:10;4.00;93.10
1880;DHT22;49285;49.002;8.390;2023-02-28T08:45:36;4.10;93.00
1880;DHT22;49285;49.002;8.390;2023-02-28T08:48:01;4.00;92.80
1880;DHT22;49285;49.002;8.390;2023-02-28T08:50:27;4.10;93.00
1880;DHT22;49285;49.002;8.390;2023-02-28T08:52:53;4.10;93.10
1880;DHT22;49285;49.002;8.390;2023-02-28T08:55:18;4.30;93.00
1880;DHT22;49285;49.002;8.390;2023-02-28T08:57:44;4.30;92.90
1880;DHT22;49285;49.002;8.390;2023-02-28T09:00:10;4.40;93.20
1880;DHT22;49285;49.002;8.390;2023-02-28T09:02:39;4.40;93.00
1880;DHT22;49285;49.002;8.390;2023-02-28T09:05:04;4.40;92.90
1880;DHT22;49285;49.002;8.390;2023-02-28T09:07:30;4.50;92.90
1880;DHT22;49285;49.002;8.390;2023-02-28T09:09:56;4.60;92.70
1880;DHT22;49285;49.002;8.390;2023-02-28T09:12:24;4.60;92.80
1880;DHT22;49285;49.002;8.390;2023-02-28T09:14:50;4.70;92.50
1880;DHT22;49285;49.002;8.390;2023-02-28T09:17:16;4.70;92.10
1880;DHT22;49285;49.002;8.390;2023-02-28T09:19:42;4.70;91.90
1880;DHT22;49285;49.002;8.390;2023-02-28T09:22:08;4.80;92.20
1880;DHT22;49285;49.002;8.390;2023-02-28T09:24:35;4.80;91.90
1880;DHT22;49285;49.002;8.390;2023-02-28T09:27:01;4.70;91.70
1880;DHT22;49285;49.002;8.390;2023-02-28T09:29:26;4.80;92.00
1880;DHT22;49285;49.002;8.390;2023-02-28T09:31:52;4.90;91.80
1880;DHT22;49285;49.002;8.390;2023-02-28T09:34:17;5.00;91.70
1880;DHT22;49285;49.002;8.390;2023-02-28T09:36:43;5.00;91.50
1880;DHT22;49285;49.002;8.390;2023-02-28T09:39:09;5.10;91.70
1880;DHT22;49285;49.002;8.390;2023-02-28T09:41:45;5.20;91.70
1880;DHT22;49285;49.002;8.390;2023-02-28T09:44:29;5.20;91.50
1880;DHT22;49285;49.002;8.390;2023-02-28T09:47:01;5.20;91.20
1880;DHT22;49285;49.002;8.390;2023-02-28T09:49:37;5.20;91.20
1880;DHT22;49285;49.002;8.390;2023-02-28T09:52:10;5.30;91.10
1880;DHT22;49285;49.002;8.390;2023-02-28T09:54:37;5.30;91.00
1880;DHT22;49285;49.002;8.390;2023-02-28T09:57:33;5.30;91.00
1880;DHT22;49285;49.002;8.390;2023-02-28T10:03:02;5.50;90.90
1880;DHT22;49285;49.002;8.390;2023-02-28T10:05:34;5.60;90.80
1880;DHT22;49285;49.002;8.390;2023-02-28T10:08:13;5.60;90.50
1880;DHT22;49285;49.002;8.390;2023-02-28T10:10:48;5.70;90.30
1880;DHT22;49285;49.002;8.390;2023-02-28T10:13:22;5.80;90.10
1880;DHT22;49285;49.002;8.390;2023-02-28T10:15:53;5.80;90.00
1880;DHT22;49285;49.002;8.390;2023-02-28T10:18:24;5.70;90.00
1880;DHT22;49285;49.002;8.390;2023-02-28T10:20:51;5.80;89.60
1880;DHT22;49285;49.002;8.390;2023-02-28T10:23:34;5.80;89.60
1880;DHT22;49285;49.002;8.390;2023-02-28T10:26:18;5.70;89.70
1880;DHT22;49285;49.002;8.390;2023-02-28T10:28:44;5.80;89.30
1880;DHT22;49285;49.002;8.390;2023-02-28T10:31:16;5.80;89.00
1880;DHT22;49285;49.002;8.390;2023-02-28T10:33:43;5.90;88.90
1880;DHT22;49285;49.002;8.390;2023-02-28T10:36:16;5.90;89.10
1880;DHT22;49285;49.002;8.390;2023-02-28T10:38:44;5.80;88.70
1880;DHT22;49285;49.002;8.390;2023-02-28T10:41:17;5.80;89.20
1880;DHT22;49285;49.002;8.390;2023-02-28T10:43:51;6.00;89.30
1880;DHT22;49285;49.002;8.390;2023-02-28T10:46:19;6.00;89.10
1880;DHT22;49285;49.002;8.390;2023-02-28T10:49:04;6.00;88.60
1880;DHT22;49285;49.002;8.390;2023-02-28T10:51:38;6.00;88.60
1880;DHT22;49285;49.002;8.390;2023-02-28T10:54:04;6.10;88.50
1880;DHT22;49285;49.002;8.390;2023-02-28T10:56:31;6.10;87.90
1880;DHT22;49285;49.002;8.390;2023-02-28T10:58:58;6.10;87.50
1880;DHT22;49285;49.002;8.390;2023-02-28T11:01:35;6.10;87.70
1880;DHT22;49285;49.002;8.390;2023-02-28T11:04:02;6.00;87.40
1880;DHT22;49285;49.002;8.390;2023-02-28T11:06:33;6.00;88.10
1880;DHT22;49285;49.002;8.390;2023-02-28T11:09:00;6.00;88.40
1880;DHT22;49285;49.002;8.390;2023-02-28T11:11:28;6.00;88.00
1880;DHT22;49285;49.002;8.390;2023-02-28T11:14:04;6.00;87.90
1880;DHT22;49285;49.002;8.390;2023-02-28T11:16:35;6.00;87.70
1880;DHT22;49285;49.002;8.390;2023-02-28T11:19:04;6.00;87.70
1880;DHT22;49285;49.002;8.390;2023-02-28T11:21:33;6.10;88.00
1880;DHT22;49285;49.002;8.390;2023-02-28T11:26:50;6.20;87.70
1880;DHT22;49285;49.002;8.390;2023-02-28T11:32:16;6.20;87.40
1880;DHT22;49285;49.002;8.390;2023-02-28T11:34:44;6.30;87.60
1880;DHT22;49285;49.002;8.390;2023-02-28T11:37:14;6.40;87.00
1880;DHT22;49285;49.002;8.390;2023-02-28T11:39:40;6.30;86.50
1880;DHT22;49285;49.002;8.390;2023-02-28T11:52:52;6.40;86.60
1880;DHT22;49285;49.002;8.390;2023-02-28T11:55:26;6.50;86.60
1880;DHT22;49285;49.002;8.390;2023-02-28T11:58:23;6.60;86.30
1880;DHT22;49285;49.002;8.390;2023-02-28T12:06:41;6.90;85.40
1880;DHT22;49285;49.002;8.390;2023-02-28T12:13:18;7.10;85.40
1880;DHT22;49285;49.002;8.390;2023-02-28T12:15:27;7.40;85.10
1880;DHT22;49285;49.002;8.390;2023-02-28T12:18:01;8.20;85.10
1880;DHT22;49285;49.002;8.390;2023-02-28T12:26:34;8.90;78.00
1880;DHT22;49285;49.002;8.390;2023-02-28T12:29:20;9.50;77.90
1880;DHT22;49285;49.002;8.390;2023-02-28T12:31:56;10.20;75.30
1880;DHT22;49285;49.002;8.390;2023-02-28T12:34:44;11.70;74.50
1880;DHT22;49285;49.002;8.390;2023-02-28T12:37:17;13.20;72.20
1880;DHT22;49285;49.002;8.390;2023-02-28T12:39:48;14.50;68.20
1880;DHT22;49285;49.002;8.390;2023-02-28T12:42:22;15.70;64.40
1880;DHT22;49285;49.002;8.390;2023-02-28T12:44:53;16.30;58.40
1880;DHT22;49285;49.002;8.390;2023-02-28T12:47:19;16.00;55.30
1880;DHT22;49285;49.002;8.390;2023-02-28T12:52:47;14.20;53.60
1880;DHT22;49285;49.002;8.390;2023-02-28T12:55:15;14.50;54.10
1880;DHT22;49285;49.002;8.390;2023-02-28T12:57:56;14.00;53.20
1880;DHT22;49285;49.002;8.390;2023-02-28T13:00:25;13.50;53.60
1880;DHT22;49285;49.002;8.390;2023-02-28T13:09:18;12.70;55.80
1880;DHT22;49285;49.002;8.390;2023-02-28T13:11:53;13.90;56.60
1880;DHT22;49285;49.002;8.390;2023-02-28T13:14:26;14.40;54.20
1880;DHT22;49285;49.002;8.390;2023-02-28T13:19:45;15.10;53.70
1880;DHT22;49285;49.002;8.390;2023-02-28T13:24:55;14.90;51.50
1880;DHT22;49285;49.002;8.390;2023-02-28T13:27:39;14.40;51.10
1880;DHT22;49285;49.002;8.390;2023-02-28T13:36:09;13.10;52.30
1880;DHT22;49285;49.002;8.390;2023-02-28T13:38:38;12.70;52.90
1880;DHT22;49285;49.002;8.390;2023-02-28T13:41:43;12.40;53.20
1880;DHT22;49285;49.002;8.390;2023-02-28T13:49:28;11.50;54.90
1880;DHT22;49285;49.002;8.390;2023-02-28T14:05:33;12.50;56.20
1880;DHT22;49285;49.002;8.390;2023-02-28T14:08:06;12.50;55.10
1880;DHT22;49285;49.002;8.390;2023-02-28T14:10:39;12.20;55.00
1880;DHT22;49285;49.002;8.390;2023-02-28T14:13:40;12.10;55.00
1880;DHT22;49285;49.002;8.390;2023-02-28T14:16:12;11.90;55.20
1880;DHT22;49285;49.002;8.390;2023-02-28T14:18:42;11.80;55.30
1880;DHT22;49285;49.002;8.390;2023-02-28T14:21:33;11.70;55.40
1880;DHT22;49285;49.002;8.390;2023-02-28T14:24:26;11.60;55.40
1880;DHT22;49285;49.002;8.390;2023-02-28T14:32:54;11.20;56.60
1880;DHT22;49285;49.002;8.390;2023-02-28T14:37:53;11.10;57.10
1880;DHT22;49285;49.002;8.390;2023-02-28T14:40:31;11.10;57.10
1880;DHT22;49285;49.002;8.390;2023-02-28T14:43:03;11.10;57.20
1880;DHT22;49285;49.002;8.390;2023-02-28T14:45:31;11.20;57.30
1880;DHT22;49285;49.002;8.390;2023-02-28T14:47:58;11.20;57.30
1880;DHT22;49285;49.002;8.390;2023-02-28T14:50:32;11.30;57.40
1880;DHT22;49285;49.002;8.390;2023-02-28T14:52:59;11.30;57.40
1880;DHT22;49285;49.002;8.390;2023-02-28T14:55:35;11.30;57.40
1880;DHT22;49285;49.002;8.390;2023-02-28T14:58:03;11.30;57.40
1880;DHT22;49285;49.002;8.390;2023-02-28T15:00:33;11.20;56.80
1880;DHT22;49285;49.002;8.390;2023-02-28T15:03:01;11.20;57.10
1880;DHT22;49285;49.002;8.390;2023-02-28T15:05:32;11.10;56.90
1880;DHT22;49285;49.002;8.390;2023-02-28T15:08:10;11.00;57.10
1880;DHT22;49285;49.002;8.390;2023-02-28T15:10:37;10.90;57.30
1880;DHT22;49285;49.002;8.390;2023-02-28T15:13:10;10.90;57.40
1880;DHT22;49285;49.002;8.390;2023-02-28T15:15:55;10.80;57.40
1880;DHT22;49285;49.002;8.390;2023-02-28T15:18:23;10.80;57.70
1880;DHT22;49285;49.002;8.390;2023-02-28T15:20:51;10.70;57.80
1880;DHT22;49285;49.002;8.390;2023-02-28T15:23:19;10.80;57.60
1880;DHT22;49285;49.002;8.390;2023-02-28T15:25:47;10.70;57.70
1880;DHT22;49285;49.002;8.390;2023-02-28T15:28:16;10.60;57.60
1880;DHT22;49285;49.002;8.390;2023-02-28T15:31:02;10.60;57.80
1880;DHT22;49285;49.002;8.390;2023-02-28T15:33:32;10.60;58.00
1880;DHT22;49285;49.002;8.390;2023-02-28T15:36:12;10.60;58.00
1880;DHT22;49285;49.002;8.390;2023-02-28T15:38:38;10.60;58.20
1880;DHT22;49285;49.002;8.390;2023-02-28T15:41:04;10.50;58.10
1880;DHT22;49285;49.002;8.390;2023-02-28T15:43:35;10.50;58.10
1880;DHT22;49285;49.002;8.390;2023-02-28T15:46:07;10.50;58.20
1880;DHT22;49285;49.002;8.390;2023-02-28T15:51:05;10.30;58.40
1880;DHT22;49285;49.002;8.390;2023-02-28T15:53:50;10.30;58.40
1880;DHT22;49285;49.002;8.390;2023-02-28T15:56:31;10.20;58.50
1880;DHT22;49285;49.002;8.390;2023-02-28T15:58:59;10.10;58.70
1880;DHT22;49285;49.002;8.390;2023-02-28T16:01:28;10.10;58.80
1880;DHT22;49285;49.002;8.390;2023-02-28T16:04:04;10.00;58.70
1880;DHT22;49285;49.002;8.390;2023-02-28T16:06:37;10.00;58.80
1880;DHT22;49285;49.002;8.390;2023-02-28T16:09:05;9.90;59.50
1880;DHT22;49285;49.002;8.390;2023-02-28T16:11:33;9.80;59.70
1880;DHT22;49285;49.002;8.390;2023-02-28T16:13:59;9.70;59.90
1880;DHT22;49285;49.002;8.390;2023-02-28T16:16:26;9.60;60.20
1880;DHT22;49285;49.002;8.390;2023-02-28T16:18:52;9.60;60.10
1880;DHT22;49285;49.002;8.390;2023-02-28T16:21:18;9.60;60.30
1880;DHT22;49285;49.002;8.390;2023-02-28T16:23:43;9.50;60.40
1880;DHT22;49285;49.002;8.390;2023-02-28T16:26:23;9.50;60.70
1880;DHT22;49285;49.002;8.390;2023-02-28T16:28:50;9.30;61.20
1880;DHT22;49285;49.002;8.390;2023-02-28T16:31:16;9.30;61.40
1880;DHT22;49285;49.002;8.390;2023-02-28T16:33:44;9.30;61.40
1880;DHT22;49285;49.002;8.390;2023-02-28T16:36:18;9.20;61.50
1880;DHT22;49285;49.002;8.390;2023-02-28T16:38:44;9.10;61.60
1880;DHT22;49285;49.002;8.390;2023-02-28T16:41:14;9.10;61.80
1880;DHT22;49285;49.002;8.390;2023-02-28T16:43:45;9.10;62.10
1880;DHT22;49285;49.002;8.390;2023-02-28T16:46:11;9.00;62.00
1880;DHT22;49285;49.002;8.390;2023-02-28T16:48:38;9.00;62.30
1880;DHT22;49285;49.002;8.390;2023-02-28T16:51:04;8.90;62.30
1880;DHT22;49285;49.002;8.390;2023-02-28T16:53:30;8.80;62.30
1880;DHT22;49285;49.002;8.390;2023-02-28T16:55:56;8.80;62.80
1880;DHT22;49285;49.002;8.390;2023-02-28T16:58:21;8.70;63.00
1880;DHT22;49285;49.002;8.390;2023-02-28T17:00:50;8.60;63.20
1880;DHT22;49285;49.002;8.390;2023-02-28T17:03:26;8.60;63.40
1880;DHT22;49285;49.002;8.390;2023-02-28T17:05:52;8.50;63.40
1880;DHT22;49285;49.002;8.390;2023-02-28T17:08:18;8.40;63.50
1880;DHT22;49285;49.002;8.390;2023-02-28T17:10:44;8.40;64.10
1880;DHT22;49285;49.002;8.390;2023-02-28T17:13:10;8.30;64.20
1880;DHT22;49285;49.002;8.390;2023-02-28T17:15:36;8.20;64.60
1880;DHT22;49285;49.002;8.390;2023-02-28T17:18:03;8.20;64.90
1880;DHT22;49285;49.002;8.390;2023-02-28T17:20:29;8.10;65.00
1880;DHT22;49285;49.002;8.390;2023-02-28T17:22:55;8.10;65.20
1880;DHT22;49285;49.002;8.390;2023-02-28T17:25:22;8.10;65.40
1880;DHT22;49285;49.002;8.390;2023-02-28T17:27:48;8.00;65.50
1880;DHT22;49285;49.002;8.390;2023-02-28T17:30:15;8.00;65.80
1880;DHT22;49285;49.002;8.390;2023-02-28T17:32:41;7.90;66.10
1880;DHT22;49285;49.002;8.390;2023-02-28T17:35:08;7.90;66.30
1880;DHT22;49285;49.002;8.390;2023-02-28T17:37:33;7.80;66.70
1880;DHT22;49285;49.002;8.390;2023-02-28T17:39:59;7.70;67.00
1880;DHT22;49285;49.002;8.390;2023-02-28T17:42:24;7.60;67.20
1880;DHT22;49285;49.002;8.390;2023-02-28T17:44:50;7.60;67.50
1880;DHT22;49285;49.002;8.390;2023-02-28T17:47:15;7.60;67.50
1880;DHT22;49285;49.002;8.390;2023-02-28T17:49:41;7.60;67.60
1880;DHT22;49285;49.002;8.390;2023-02-28T17:52:07;7.50;67.70
1880;DHT22;49285;49.002;8.390;2023-02-28T17:54:33;7.50;67.90
1880;DHT22;49285;49.002;8.390;2023-02-28T17:56:58;7.40;68.20
1880;DHT22;49285;49.002;8.390;2023-02-28T17:59:24;7.40;68.30
1880;DHT22;49285;49.002;8.390;2023-02-28T18:01:50;7.40;68.40
1880;DHT22;49285;49.002;8.390;2023-02-28T18:04:15;7.40;68.50
1880;DHT22;49285;49.002;8.390;2023-02-28T18:06:43;7.40;68.90
1880;DHT22;49285;49.002;8.390;2023-02-28T18:09:22;7.30;68.80
1880;DHT22;49285;49.002;8.390;2023-02-28T18:11:53;7.30;68.90